createdAt,value
2023-01-19T00:00:56.505Z,99438.31
2023-01-19T00:03:23.421Z,99429.75
2023-01-19T00:05:50.735Z,99433.13
2023-01-19T00:08:17.878Z,99437.25
2023-01-19T00:10:48.927Z,99443.97
2023-01-19T00:13:16.092Z,99457.47
2023-01-19T00:15:43.592Z,99454.78
2023-01-19T00:18:11.244Z,99456.34
2023-01-19T00:20:40.270Z,99452.03
2023-01-19T00:23:08.228Z,99455.41
2023-01-19T00:25:42.353Z,99463.09
2023-01-19T00:28:14.784Z,99458.72
2023-01-19T00:30:42.409Z,99474.81
2023-01-19T00:33:11.099Z,99477.31
2023-01-19T00:35:38.110Z,99485.78
2023-01-19T00:38:05.173Z,99483.09
2023-01-19T00:40:32.120Z,99476.25
2023-01-19T00:43:00.248Z,99477.84
2023-01-19T00:45:27.975Z,99487.22
2023-01-19T00:47:57.280Z,99483.78
2023-01-19T00:50:26.330Z,99486.22
2023-01-19T00:52:55.290Z,99487.00
2023-01-19T00:55:23.532Z,99485.22
2023-01-19T00:57:50.568Z,99481.72
2023-01-19T01:00:19.915Z,99488.25
2023-01-19T01:02:49.168Z,99495.31
2023-01-19T01:05:16.567Z,99494.31
2023-01-19T01:07:47.046Z,99497.75
2023-01-19T01:10:23.932Z,99495.25
2023-01-19T01:12:53.632Z,99497.88
2023-01-19T01:15:24.811Z,99499.56
2023-01-19T01:17:53.217Z,99487.72
2023-01-19T01:20:28.039Z,99490.28
2023-01-19T01:22:56.778Z,99496.06
2023-01-19T01:25:27.412Z,99493.38
2023-01-19T01:27:55.493Z,99491.69
2023-01-19T01:30:23.434Z,99494.19
2023-01-19T01:32:50.478Z,99498.41
2023-01-19T01:35:17.952Z,99498.34
2023-01-19T01:37:45.011Z,99509.34
2023-01-19T01:40:17.759Z,99500.72
2023-01-19T01:42:45.748Z,99508.31
2023-01-19T01:45:40.326Z,99508.13
2023-01-19T01:48:18.016Z,99513.09
2023-01-19T01:51:10.144Z,99512.19
2023-01-19T01:53:38.618Z,99505.31
2023-01-19T01:56:14.303Z,99507.59
2023-01-19T01:58:41.756Z,99513.50
2023-01-19T02:01:29.341Z,99500.66
2023-01-19T02:03:57.902Z,99509.00
2023-01-19T02:06:25.934Z,99507.31
2023-01-19T02:09:27.458Z,99507.25
2023-01-19T02:12:13.919Z,99502.13
2023-01-19T02:14:40.948Z,99507.22
2023-01-19T02:17:08.159Z,99500.28
2023-01-19T02:19:42.930Z,99505.38
2023-01-19T02:22:38.558Z,99501.09
2023-01-19T02:25:06.687Z,99498.38
2023-01-19T02:27:34.129Z,99508.53
2023-01-19T02:30:03.777Z,99500.66
2023-01-19T02:32:30.921Z,99506.72
2023-01-19T02:34:58.289Z,99506.84
2023-01-19T02:37:26.796Z,99512.78
2023-01-19T02:39:57.962Z,99503.50
2023-01-19T02:42:30.018Z,99506.13
2023-01-19T02:44:58.025Z,99514.66
2023-01-19T02:47:25.155Z,99501.88
2023-01-19T02:50:00.093Z,99491.59
2023-01-19T02:52:28.438Z,99494.88
2023-01-19T02:55:18.332Z,99492.34
2023-01-19T02:58:09.932Z,99496.50
2023-01-19T03:00:48.858Z,99492.09
2023-01-19T03:03:32.014Z,99501.34
2023-01-19T03:06:15.094Z,99494.44
2023-01-19T03:08:48.324Z,99501.94
2023-01-19T03:11:15.825Z,99497.56
2023-01-19T03:13:58.719Z,99499.25
2023-01-19T03:16:50.264Z,99493.19
2023-01-19T03:19:46.549Z,99488.03
2023-01-19T03:22:24.531Z,99499.06
2023-01-19T03:24:55.705Z,99497.31
2023-01-19T03:27:41.234Z,99500.75
2023-01-19T03:30:11.682Z,99511.75
2023-01-19T03:32:47.583Z,99511.63
2023-01-19T03:35:16.670Z,99505.56
2023-01-19T03:37:48.238Z,99500.38
2023-01-19T03:40:15.621Z,99498.63
2023-01-19T03:42:43.889Z,99503.59
2023-01-19T03:45:13.479Z,99513.75
2023-01-19T03:47:41.340Z,99516.25
2023-01-19T03:50:18.904Z,99518.66
2023-01-19T03:52:45.924Z,99515.16
2023-01-19T03:55:13.719Z,99513.31
2023-01-19T03:57:40.637Z,99511.50
2023-01-19T04:00:08.755Z,99514.84
2023-01-19T04:02:35.772Z,99518.09
2023-01-19T04:05:02.808Z,99513.72
2023-01-19T04:07:29.741Z,99511.88
2023-01-19T04:09:56.721Z,99515.25
2023-01-19T04:12:23.770Z,99514.28
2023-01-19T04:14:50.760Z,99520.94
2023-01-19T04:17:17.663Z,99516.66
2023-01-19T04:19:45.239Z,99520.88
2023-01-19T04:22:12.199Z,99525.03
2023-01-19T04:24:39.097Z,99520.72
2023-01-19T04:27:06.053Z,99516.44
2023-01-19T04:29:33.208Z,99517.22
2023-01-19T04:32:00.112Z,99514.59
2023-01-19T04:34:27.078Z,99518.75
2023-01-19T04:36:56.000Z,99525.47
2023-01-19T04:39:23.202Z,99522.03
2023-01-19T04:41:51.700Z,99521.22
2023-01-19T04:44:18.694Z,99527.13
2023-01-19T04:46:45.748Z,99518.69
2023-01-19T04:49:12.719Z,99519.47
2023-01-19T04:51:39.652Z,99520.28
2023-01-19T04:54:09.074Z,99524.50
2023-01-19T04:56:36.299Z,99528.72
2023-01-19T04:59:03.306Z,99523.63
2023-01-19T05:01:30.357Z,99524.50
2023-01-19T05:04:00.086Z,99516.84
2023-01-19T05:06:27.100Z,99517.81
2023-01-19T05:08:54.476Z,99529.75
2023-01-19T05:11:21.668Z,99528.16
2023-01-19T05:13:50.891Z,99527.28
2023-01-19T05:16:18.064Z,99531.50
2023-01-19T05:18:45.133Z,99532.22
2023-01-19T05:21:12.060Z,99539.88
2023-01-19T05:23:39.031Z,99535.59
2023-01-19T05:26:06.130Z,99535.59
2023-01-19T05:28:33.988Z,99531.34
2023-01-19T05:31:01.057Z,99535.47
2023-01-19T05:33:28.206Z,99536.28
2023-01-19T05:35:55.554Z,99536.28
2023-01-19T05:38:34.218Z,99537.06
2023-01-19T05:41:02.498Z,99545.59
2023-01-19T05:43:29.482Z,99546.41
2023-01-19T05:45:56.513Z,99553.16
2023-01-19T05:48:23.503Z,99560.97
2023-01-19T05:50:51.503Z,99555.91
2023-01-19T05:53:18.476Z,99555.13
2023-01-19T05:55:45.470Z,99560.97
2023-01-19T05:58:12.393Z,99569.44
2023-01-19T06:00:39.330Z,99571.19
2023-01-19T06:03:06.645Z,99583.00
2023-01-19T06:05:34.065Z,99587.22
2023-01-19T06:08:01.796Z,99584.50
2023-01-19T06:10:28.756Z,99585.38
2023-01-19T06:12:55.830Z,99583.56
2023-01-19T06:15:22.982Z,99590.16
2023-01-19T06:17:49.923Z,99583.19
2023-01-19T06:20:17.196Z,99586.47
2023-01-19T06:22:44.373Z,99592.28
2023-01-19T06:25:11.914Z,99588.78
2023-01-19T06:27:39.951Z,99586.94
2023-01-19T06:30:07.866Z,99580.16
2023-01-19T06:32:34.893Z,99587.75
2023-01-19T06:35:01.886Z,99592.75
2023-01-19T06:37:30.528Z,99588.34
2023-01-19T06:39:57.553Z,99582.28
2023-01-19T06:42:24.504Z,99592.56
2023-01-19T06:44:51.460Z,99580.59
2023-01-19T06:47:18.527Z,99580.53
2023-01-19T06:49:45.774Z,99588.09
2023-01-19T06:52:17.551Z,99581.31
2023-01-19T06:54:46.167Z,99588.19
2023-01-19T06:57:14.457Z,99587.31
2023-01-19T06:59:41.789Z,99590.81
2023-01-19T07:02:27.785Z,99585.00
2023-01-19T07:04:56.587Z,99594.38
2023-01-19T07:07:23.578Z,99602.97
2023-01-19T07:09:53.848Z,99595.31
2023-01-19T07:12:22.342Z,99600.66
2023-01-19T07:14:49.718Z,99602.31
2023-01-19T07:17:16.770Z,99604.97
2023-01-19T07:19:43.774Z,99617.06
2023-01-19T07:22:10.779Z,99609.56
2023-01-19T07:24:38.170Z,99610.56
2023-01-19T07:27:05.521Z,99606.50
2023-01-19T07:29:32.579Z,99611.84
2023-01-19T07:31:59.742Z,99610.44
2023-01-19T07:34:26.695Z,99614.91
2023-01-19T07:36:53.707Z,99611.72
2023-01-19T07:39:20.743Z,99622.97
2023-01-19T07:41:50.582Z,99623.97
2023-01-19T07:44:17.662Z,99615.66
2023-01-19T07:46:44.810Z,99622.44
2023-01-19T07:49:12.706Z,99622.19
2023-01-19T07:51:39.691Z,99624.28
2023-01-19T07:54:08.485Z,99616.88
2023-01-19T07:56:35.456Z,99623.56
2023-01-19T07:59:02.513Z,99630.88
2023-01-19T08:01:29.921Z,99623.13
2023-01-19T08:03:57.279Z,99635.03
2023-01-19T08:06:35.428Z,99623.00
2023-01-19T08:09:05.555Z,99623.75
2023-01-19T08:11:33.443Z,99623.34
2023-01-19T08:14:00.914Z,99620.25
2023-01-19T08:16:28.134Z,99635.03
2023-01-19T08:18:55.362Z,99635.81
2023-01-19T08:21:22.296Z,99635.72
2023-01-19T08:23:57.151Z,99629.28
2023-01-19T08:26:29.301Z,99638.28
2023-01-19T08:28:59.223Z,99633.38
2023-01-19T08:31:26.884Z,99637.00
2023-01-19T08:33:54.205Z,99639.78
2023-01-19T08:36:22.649Z,99627.91
2023-01-19T08:38:49.923Z,99648.00
2023-01-19T08:41:17.025Z,99649.16
2023-01-19T08:43:45.511Z,99638.97
2023-01-19T08:46:12.783Z,99634.78
2023-01-19T08:48:40.110Z,99642.59
2023-01-19T08:51:07.256Z,99651.44
2023-01-19T08:53:34.702Z,99648.25
2023-01-19T08:56:02.318Z,99657.03
2023-01-19T08:58:29.536Z,99652.81
2023-01-19T09:00:56.678Z,99650.22
2023-01-19T09:03:24.064Z,99646.91
2023-01-19T09:05:51.330Z,99647.00
2023-01-19T09:08:18.404Z,99647.06
2023-01-19T09:10:50.584Z,99654.16
2023-01-19T09:13:19.391Z,99652.63
2023-01-19T09:15:47.091Z,99651.09
2023-01-19T09:18:18.059Z,99659.88
2023-01-19T09:20:48.574Z,99652.91
2023-01-19T09:23:20.116Z,99658.06
2023-01-19T09:25:48.106Z,99654.59
2023-01-19T09:28:17.666Z,99659.03
2023-01-19T09:30:45.240Z,99654.78
2023-01-19T09:33:17.489Z,99665.25
2023-01-19T09:35:47.119Z,99661.09
2023-01-19T09:38:16.403Z,99656.88
2023-01-19T09:41:04.356Z,99657.84
2023-01-19T09:43:45.452Z,99659.69
2023-01-19T09:46:41.488Z,99655.38
2023-01-19T09:49:36.794Z,99651.88
2023-01-19T09:52:04.373Z,99638.09
2023-01-19T09:54:54.643Z,99643.31
2023-01-19T09:57:27.211Z,99646.78
2023-01-19T09:59:59.725Z,99646.78
2023-01-19T10:02:47.907Z,99647.59
2023-01-19T10:05:45.128Z,99651.81
2023-01-19T10:08:30.543Z,99649.16
2023-01-19T10:10:58.660Z,99656.00
2023-01-19T10:13:44.354Z,99647.34
2023-01-19T10:16:14.471Z,99642.03
2023-01-19T10:18:51.955Z,99641.97
2023-01-19T10:21:34.768Z,99641.69
2023-01-19T10:24:11.718Z,99647.63
2023-01-19T10:26:56.699Z,99640.56
2023-01-19T10:29:36.387Z,99639.63
2023-01-19T10:32:35.967Z,99646.16
2023-01-19T10:35:21.925Z,99638.78
2023-01-19T10:37:49.766Z,99645.38
2023-01-19T10:40:36.658Z,99638.16
2023-01-19T10:43:38.055Z,99630.25
2023-01-19T10:46:50.371Z,99638.78
2023-01-19T10:49:39.245Z,99627.47
2023-01-19T10:52:39.807Z,99630.69
2023-01-19T10:55:24.915Z,99627.69
2023-01-19T10:57:53.624Z,99633.50
2023-01-19T11:00:41.265Z,99633.25
2023-01-19T11:03:32.286Z,99626.13
2023-01-19T11:06:27.985Z,99621.44
2023-01-19T11:09:19.691Z,99624.50
2023-01-19T11:11:50.632Z,99619.22
2023-01-19T11:14:24.675Z,99617.28
2023-01-19T11:16:58.917Z,99614.00
2023-01-19T11:19:30.795Z,99619.44
2023-01-19T11:22:24.759Z,99609.94
2023-01-19T11:24:52.215Z,99614.78
2023-01-19T11:27:21.301Z,99615.31
2023-01-19T11:30:12.321Z,99611.22
2023-01-19T11:32:39.353Z,99608.97
2023-01-19T11:35:33.474Z,99604.22
2023-01-19T11:38:23.471Z,99613.31
2023-01-19T11:40:59.118Z,99607.88
2023-01-19T11:43:39.781Z,99609.41
2023-01-19T11:46:15.426Z,99610.03
2023-01-19T11:49:05.482Z,99606.44
2023-01-19T11:52:04.761Z,99602.09
2023-01-19T11:54:56.268Z,99608.03
2023-01-19T11:57:23.427Z,99603.56
2023-01-19T11:59:53.329Z,99605.25
2023-01-19T12:02:43.004Z,99603.44
2023-01-19T12:05:16.466Z,99601.72
2023-01-19T12:07:45.635Z,99596.50
2023-01-19T12:10:28.969Z,99610.13
2023-01-19T12:12:57.459Z,99604.91
2023-01-19T12:15:29.859Z,99607.47
2023-01-19T12:18:02.575Z,99604.91
2023-01-19T12:20:39.355Z,99603.16
2023-01-19T12:23:57.539Z,99602.34
2023-01-19T12:26:49.310Z,99603.22
2023-01-19T12:29:22.023Z,99614.44
2023-01-19T12:32:14.815Z,99605.91
2023-01-19T12:34:49.306Z,99597.44
2023-01-19T12:37:30.691Z,99608.72
2023-01-19T12:40:00.940Z,99618.25
2023-01-19T12:42:28.658Z,99617.41
2023-01-19T12:45:14.205Z,99612.25
2023-01-19T12:47:54.690Z,99614.88
2023-01-19T12:50:25.763Z,99622.69
2023-01-19T12:53:04.178Z,99614.19
2023-01-19T12:55:39.116Z,99624.56
2023-01-19T12:58:18.838Z,99629.78
2023-01-19T13:00:49.691Z,99633.22
2023-01-19T13:03:16.550Z,99628.03
2023-01-19T13:05:43.449Z,99624.47
2023-01-19T13:08:10.393Z,99623.47
2023-01-19T13:11:09.664Z,99633.66
2023-01-19T13:13:46.300Z,99625.06
2023-01-19T13:16:19.652Z,99631.84
2023-01-19T13:19:08.579Z,99629.19
2023-01-19T13:21:44.831Z,99642.06
2023-01-19T13:24:19.573Z,99631.78
2023-01-19T13:26:49.484Z,99637.75
2023-01-19T13:29:37.964Z,99651.50
2023-01-19T13:32:15.955Z,99642.81
2023-01-19T13:35:01.765Z,99647.00
2023-01-19T13:37:39.891Z,99654.59
2023-01-19T13:40:08.492Z,99664.75
2023-01-19T13:42:41.950Z,99655.19
2023-01-19T13:45:37.897Z,99664.56
2023-01-19T13:48:16.239Z,99660.97
2023-01-19T13:50:45.404Z,99659.03
2023-01-19T13:53:20.664Z,99670.88
2023-01-19T13:55:50.307Z,99663.75
2023-01-19T13:58:22.629Z,99665.22
2023-01-19T14:00:50.129Z,99663.34
2023-01-19T14:03:23.690Z,99667.44
2023-01-19T14:05:53.441Z,99672.50
2023-01-19T14:08:21.992Z,99672.28
2023-01-19T14:10:56.297Z,99673.88
2023-01-19T14:13:31.710Z,99670.38
2023-01-19T14:16:20.801Z,99680.47
2023-01-19T14:19:04.196Z,99674.34
2023-01-19T14:21:40.063Z,99681.84
2023-01-19T14:24:20.346Z,99686.81
2023-01-19T14:27:17.108Z,99704.66
2023-01-19T14:29:45.918Z,99688.13
2023-01-19T14:32:20.520Z,99692.34
2023-01-19T14:35:04.329Z,99699.94
2023-01-19T14:37:47.230Z,99692.06
2023-01-19T14:40:19.240Z,99698.75
2023-01-19T14:42:52.971Z,99701.19
2023-01-19T14:45:30.929Z,99698.44
2023-01-19T14:48:02.919Z,99697.41
2023-01-19T14:50:51.041Z,99702.41
2023-01-19T14:53:29.870Z,99706.56
2023-01-19T14:56:02.763Z,99708.22
2023-01-19T14:58:33.154Z,99699.53
2023-01-19T15:01:00.973Z,99707.09
2023-01-19T15:03:43.640Z,99707.84
2023-01-19T15:06:19.606Z,99715.44
2023-01-19T15:08:50.069Z,99711.19
2023-01-19T15:11:35.495Z,99715.44
2023-01-19T15:14:03.090Z,99713.75
2023-01-19T15:16:33.332Z,99709.56
2023-01-19T15:19:00.670Z,99715.63
2023-01-19T15:21:27.913Z,99713.13
2023-01-19T15:23:55.842Z,99724.44
2023-01-19T15:26:25.934Z,99716.16
2023-01-19T15:28:53.159Z,99715.50
2023-01-19T15:31:23.331Z,99723.50
2023-01-19T15:33:50.690Z,99723.69
2023-01-19T15:36:20.396Z,99721.28
2023-01-19T15:38:50.241Z,99718.81
2023-01-19T15:41:26.393Z,99724.94
2023-01-19T15:43:53.898Z,99719.22
2023-01-19T15:46:22.062Z,99722.88
2023-01-19T15:48:50.530Z,99722.16
2023-01-19T15:51:21.079Z,99719.69
2023-01-19T15:53:50.094Z,99720.63
2023-01-19T15:56:23.339Z,99722.44
2023-01-19T15:58:51.442Z,99729.34
2023-01-19T16:01:22.410Z,99720.78
2023-01-19T16:03:50.494Z,99715.72
2023-01-19T16:06:18.293Z,99718.34
2023-01-19T16:08:45.617Z,99720.94
2023-01-19T16:11:15.265Z,99721.81
2023-01-19T16:13:46.254Z,99721.81
2023-01-19T16:16:18.338Z,99715.75
2023-01-19T16:18:45.803Z,99718.13
2023-01-19T16:21:12.846Z,99724.75
2023-01-19T16:23:39.992Z,99735.56
2023-01-19T16:26:23.617Z,99723.13
2023-01-19T16:28:50.552Z,99726.41
2023-01-19T16:31:17.623Z,99727.88
2023-01-19T16:33:47.328Z,99730.28
2023-01-19T16:36:29.134Z,99727.53
2023-01-19T16:39:01.168Z,99731.75
2023-01-19T16:41:28.759Z,99733.50
2023-01-19T16:43:57.627Z,99732.72
2023-01-19T16:46:30.800Z,99739.88
2023-01-19T16:49:04.241Z,99734.94
2023-01-19T16:51:32.444Z,99746.25
2023-01-19T16:53:59.619Z,99742.13
2023-01-19T16:56:26.652Z,99752.63
2023-01-19T16:58:58.217Z,99747.66
2023-01-19T17:01:29.260Z,99740.06
2023-01-19T17:03:56.683Z,99744.59
2023-01-19T17:06:24.434Z,99735.31
2023-01-19T17:08:53.186Z,99737.16
2023-01-19T17:11:29.825Z,99749.19
2023-01-19T17:14:11.643Z,99750.03
2023-01-19T17:16:38.685Z,99754.41
2023-01-19T17:19:07.377Z,99749.34
2023-01-19T17:21:35.425Z,99747.66
2023-01-19T17:24:02.389Z,99753.78
2023-01-19T17:26:31.056Z,99750.31
2023-01-19T17:29:04.356Z,99747.00
2023-01-19T17:31:32.149Z,99756.56
2023-01-19T17:34:00.044Z,99752.31
2023-01-19T17:36:29.595Z,99753.22
2023-01-19T17:38:59.868Z,99755.97
2023-01-19T17:41:30.238Z,99761.16
2023-01-19T17:43:59.168Z,99757.78
2023-01-19T17:46:28.680Z,99758.66
2023-01-19T17:48:58.674Z,99762.91
2023-01-19T17:51:26.817Z,99774.84
2023-01-19T17:53:55.664Z,99768.88
2023-01-19T17:56:29.467Z,99762.97
2023-01-19T17:58:58.115Z,99773.31
2023-01-19T18:01:31.391Z,99774.28
2023-01-19T18:03:59.731Z,99773.53
2023-01-19T18:06:26.855Z,99774.41
2023-01-19T18:08:54.141Z,99784.84
2023-01-19T18:11:21.871Z,99782.28
2023-01-19T18:13:50.751Z,99778.94
2023-01-19T18:16:27.763Z,99785.84
2023-01-19T18:18:56.400Z,99788.50
2023-01-19T18:21:27.492Z,99790.97
2023-01-19T18:24:05.639Z,99785.94
2023-01-19T18:26:35.368Z,99787.75
2023-01-19T18:29:02.349Z,99793.81
2023-01-19T18:31:29.666Z,99801.66
2023-01-19T18:33:56.806Z,99790.53
2023-01-19T18:36:23.981Z,99801.69
2023-01-19T18:38:51.605Z,99795.72
2023-01-19T18:41:20.623Z,99807.00
2023-01-19T18:43:49.236Z,99800.09
2023-01-19T18:46:16.873Z,99806.13
2023-01-19T18:48:43.994Z,99801.03
2023-01-19T18:51:15.923Z,99795.06
2023-01-19T18:53:44.056Z,99806.22
2023-01-19T18:56:13.286Z,99806.22
2023-01-19T18:58:40.691Z,99819.13
2023-01-19T19:01:32.943Z,99813.91
2023-01-19T19:04:00.805Z,99822.56
2023-01-19T19:06:28.474Z,99815.66
2023-01-19T19:08:59.293Z,99826.03
2023-01-19T19:11:27.600Z,99818.38
2023-01-19T19:13:58.661Z,99821.91
2023-01-19T19:16:25.980Z,99833.13
2023-01-19T19:18:53.061Z,99832.34
2023-01-19T19:21:21.952Z,99841.81
2023-01-19T19:23:54.893Z,99841.00
2023-01-19T19:26:23.214Z,99843.59
2023-01-19T19:28:50.250Z,99854.75
2023-01-19T19:31:21.123Z,99844.34
2023-01-19T19:35:02.745Z,99854.69
2023-01-19T19:37:30.227Z,99853.81
2023-01-19T19:39:57.959Z,99854.75
2023-01-19T19:42:25.137Z,99857.44
2023-01-19T19:44:52.932Z,99860.06
2023-01-19T19:47:19.923Z,99871.19
2023-01-19T19:49:46.966Z,99871.09
2023-01-19T19:52:13.925Z,99868.44
2023-01-19T19:54:41.565Z,99880.41
2023-01-19T19:57:08.531Z,99876.06
2023-01-19T19:59:35.520Z,99885.50
2023-01-19T20:02:02.529Z,99881.13
2023-01-19T20:04:29.586Z,99882.88
2023-01-19T20:06:59.142Z,99888.91
2023-01-19T20:09:26.181Z,99885.44
2023-01-19T20:11:53.140Z,99890.59
2023-01-19T20:14:22.445Z,99888.03
2023-01-19T20:16:49.832Z,99884.63
2023-01-19T20:19:18.363Z,99897.66
2023-01-19T20:21:45.353Z,99899.44
2023-01-19T20:24:18.383Z,99900.34
2023-01-19T20:26:50.322Z,99900.34
2023-01-19T20:29:17.881Z,99902.97
2023-01-19T20:31:49.477Z,99902.97
2023-01-19T20:34:20.503Z,99906.44
2023-01-19T20:36:49.830Z,99911.53
2023-01-19T20:39:18.473Z,99913.28
2023-01-19T20:41:45.762Z,99915.91
2023-01-19T20:44:16.460Z,99924.66
2023-01-19T20:46:43.517Z,99918.75
2023-01-19T20:49:10.484Z,99916.22
2023-01-19T20:51:41.607Z,99923.19
2023-01-19T20:54:10.994Z,99923.13
2023-01-19T20:56:38.546Z,99929.28
2023-01-19T20:59:05.486Z,99929.38
2023-01-19T21:01:32.529Z,99938.97
2023-01-19T21:03:59.587Z,99944.19
2023-01-19T21:06:26.586Z,99943.41
2023-01-19T21:08:54.450Z,99935.66
2023-01-19T21:11:23.907Z,99948.56
2023-01-19T21:13:55.483Z,99954.59
2023-01-19T21:16:32.275Z,99952.88
2023-01-19T21:18:59.937Z,99954.69
2023-01-19T21:21:31.630Z,99959.84
2023-01-19T21:24:02.248Z,99967.53
2023-01-19T21:26:30.321Z,99961.50
2023-01-19T21:29:02.734Z,99968.44
2023-01-19T21:31:30.714Z,99970.25
2023-01-19T21:33:58.142Z,99974.59
2023-01-19T21:36:25.449Z,99974.53
2023-01-19T21:38:52.711Z,99971.94
2023-01-19T21:41:19.915Z,99983.13
2023-01-19T21:43:48.238Z,99979.72
2023-01-19T21:46:19.538Z,99980.66
2023-01-19T21:48:47.362Z,99992.69
2023-01-19T21:51:15.416Z,99994.50
2023-01-19T21:53:42.749Z,99992.84
2023-01-19T21:56:11.306Z,99999.69
2023-01-19T21:58:39.013Z,100002.28
2023-01-19T22:01:15.332Z,100010.84
2023-01-19T22:03:42.988Z,100011.75
2023-01-19T22:06:13.668Z,100017.75
2023-01-19T22:08:41.434Z,100017.66
2023-01-19T22:11:11.480Z,100014.25
2023-01-19T22:13:39.770Z,100025.44
2023-01-19T22:16:10.925Z,100021.09
2023-01-19T22:18:40.837Z,100019.44
2023-01-19T22:21:17.353Z,100022.91
2023-01-19T22:23:44.785Z,100028.06
2023-01-19T22:26:12.236Z,100039.25
2023-01-19T22:28:39.494Z,100034.09
2023-01-19T22:31:16.776Z,100040.94
2023-01-19T22:33:44.398Z,100048.16
2023-01-19T22:36:28.656Z,100050.75
2023-01-19T22:39:01.939Z,100043.00
2023-01-19T22:41:28.878Z,100046.44
2023-01-19T22:43:59.186Z,100053.31
2023-01-19T22:46:30.070Z,100043.00
2023-01-19T22:48:57.809Z,100056.84
2023-01-19T22:51:26.246Z,100051.78
2023-01-19T22:53:53.270Z,100051.06
2023-01-19T22:56:22.299Z,100052.03
2023-01-19T22:58:50.503Z,100059.03
2023-01-19T23:01:41.529Z,100059.94
2023-01-19T23:04:13.699Z,100060.00
2023-01-19T23:06:40.706Z,100067.75
2023-01-19T23:09:13.544Z,100073.72
2023-01-19T23:11:43.463Z,100066.91
2023-01-19T23:14:16.961Z,100063.47
2023-01-19T23:16:44.509Z,100066.09
2023-01-19T23:19:13.779Z,100076.50
2023-01-19T23:21:41.401Z,100073.94
2023-01-19T23:24:09.023Z,100079.16
2023-01-19T23:26:38.290Z,100085.22
2023-01-19T23:29:14.178Z,100080.03
2023-01-19T23:31:46.992Z,100088.63
2023-01-19T23:34:16.605Z,100079.19
2023-01-19T23:36:44.134Z,100081.78
2023-01-19T23:39:21.093Z,100092.03
2023-01-19T23:41:48.274Z,100090.28
2023-01-19T23:44:15.846Z,100092.03
2023-01-19T23:46:43.967Z,100091.97
2023-01-19T23:49:11.721Z,100090.13
2023-01-19T23:51:40.753Z,100091.81
2023-01-19T23:54:08.272Z,100086.72
2023-01-19T23:56:38.190Z,100087.59
2023-01-19T23:59:13.779Z,100085.91
